sensor_id;sensor_type;location;lat;lon;timestamp;temperature;humidity
75451;DHT22;64029;48.244;9.188;2023-05-07T00:01:56;12.20;77.20
75451;DHT22;64029;48.244;9.188;2023-05-07T00:04:23;12.20;77.00
75451;DHT22;64029;48.244;9.188;2023-05-07T00:06:50;12.20;77.00
75451;DHT22;64029;48.244;9.188;2023-05-07T00:09:17;12.10;77.00
75451;DHT22;64029;48.244;9.188;2023-05-07T00:11:44;12.10;77.10
75451;DHT22;64029;48.244;9.188;2023-05-07T00:14:11;12.00;77.10
75451;DHT22;64029;48.244;9.188;2023-05-07T00:16:38;12.00;77.10
75451;DHT22;64029;48.244;9.188;2023-05-07T00:19:06;12.00;77.00
75451;DHT22;64029;48.244;9.188;2023-05-07T00:21:33;11.90;77.10
75451;DHT22;64029;48.244;9.188;2023-05-07T00:24:00;11.90;77.20
75451;DHT22;64029;48.244;9.188;2023-05-07T00:26:27;11.90;77.20
75451;DHT22;64029;48.244;9.188;2023-05-07T00:28:54;11.80;77.00
75451;DHT22;64029;48.244;9.188;2023-05-07T00:31:20;11.80;77.60
75451;DHT22;64029;48.244;9.188;2023-05-07T00:33:47;11.80;77.80
75451;DHT22;64029;48.244;9.188;2023-05-07T00:36:16;11.70;78.20
75451;DHT22;64029;48.244;9.188;2023-05-07T00:38:42;11.70;77.70
75451;DHT22;64029;48.244;9.188;2023-05-07T00:41:09;11.70;77.50
75451;DHT22;64029;48.244;9.188;2023-05-07T00:43:36;11.70;77.20
75451;DHT22;64029;48.244;9.188;2023-05-07T00:46:04;11.70;77.30
75451;DHT22;64029;48.244;9.188;2023-05-07T00:48:32;11.70;77.00
75451;DHT22;64029;48.244;9.188;2023-05-07T00:50:59;11.60;77.00
75451;DHT22;64029;48.244;9.188;2023-05-07T00:53:27;11.70;76.90
75451;DHT22;64029;48.244;9.188;2023-05-07T00:55:55;11.60;77.20
75451;DHT22;64029;48.244;9.188;2023-05-07T00:58:22;11.50;77.10
75451;DHT22;64029;48.244;9.188;2023-05-07T01:00:50;11.50;77.10
75451;DHT22;64029;48.244;9.188;2023-05-07T01:03:17;11.50;77.20
75451;DHT22;64029;48.244;9.188;2023-05-07T01:05:45;11.40;77.30
75451;DHT22;64029;48.244;9.188;2023-05-07T01:08:13;11.50;77.70
75451;DHT22;64029;48.244;9.188;2023-05-07T01:10:42;11.40;77.60
75451;DHT22;64029;48.244;9.188;2023-05-07T01:13:09;11.40;77.90
75451;DHT22;64029;48.244;9.188;2023-05-07T01:15:37;11.40;77.50
75451;DHT22;64029;48.244;9.188;2023-05-07T01:18:06;11.40;77.60
75451;DHT22;64029;48.244;9.188;2023-05-07T01:20:33;11.30;79.00
75451;DHT22;64029;48.244;9.188;2023-05-07T01:23:03;11.30;78.10
75451;DHT22;64029;48.244;9.188;2023-05-07T01:25:31;11.30;77.60
75451;DHT22;64029;48.244;9.188;2023-05-07T01:27:58;11.30;77.50
75451;DHT22;64029;48.244;9.188;2023-05-07T01:30:27;11.30;77.60
75451;DHT22;64029;48.244;9.188;2023-05-07T01:32:58;11.20;78.90
75451;DHT22;64029;48.244;9.188;2023-05-07T01:35:29;11.20;78.30
75451;DHT22;64029;48.244;9.188;2023-05-07T01:37:56;11.20;77.70
75451;DHT22;64029;48.244;9.188;2023-05-07T01:40:27;11.20;78.60
75451;DHT22;64029;48.244;9.188;2023-05-07T01:42:54;11.20;77.70
75451;DHT22;64029;48.244;9.188;2023-05-07T01:45:22;11.20;77.50
75451;DHT22;64029;48.244;9.188;2023-05-07T01:47:49;11.10;77.50
75451;DHT22;64029;48.244;9.188;2023-05-07T01:50:17;11.10;77.80
75451;DHT22;64029;48.244;9.188;2023-05-07T01:52:45;11.10;77.50
75451;DHT22;64029;48.244;9.188;2023-05-07T01:55:11;11.10;77.50
75451;DHT22;64029;48.244;9.188;2023-05-07T01:57:40;11.00;77.70
75451;DHT22;64029;48.244;9.188;2023-05-07T02:00:07;11.00;77.80
75451;DHT22;64029;48.244;9.188;2023-05-07T02:02:35;11.00;78.70
75451;DHT22;64029;48.244;9.188;2023-05-07T02:05:04;10.90;77.70
75451;DHT22;64029;48.244;9.188;2023-05-07T02:07:31;10.90;77.70
75451;DHT22;64029;48.244;9.188;2023-05-07T02:09:58;10.90;77.80
75451;DHT22;64029;48.244;9.188;2023-05-07T02:12:25;10.90;77.60
75451;DHT22;64029;48.244;9.188;2023-05-07T02:14:53;10.80;77.70
75451;DHT22;64029;48.244;9.188;2023-05-07T02:17:20;10.80;77.50
75451;DHT22;64029;48.244;9.188;2023-05-07T02:19:47;10.80;77.60
75451;DHT22;64029;48.244;9.188;2023-05-07T02:22:14;10.80;77.70
75451;DHT22;64029;48.244;9.188;2023-05-07T02:24:41;10.70;77.60
75451;DHT22;64029;48.244;9.188;2023-05-07T02:27:07;10.70;77.60
75451;DHT22;64029;48.244;9.188;2023-05-07T02:29:34;10.70;78.30
75451;DHT22;64029;48.244;9.188;2023-05-07T02:32:03;10.70;77.60
75451;DHT22;64029;48.244;9.188;2023-05-07T02:34:30;10.60;77.60
75451;DHT22;64029;48.244;9.188;2023-05-07T02:36:57;10.60;77.60
75451;DHT22;64029;48.244;9.188;2023-05-07T02:39:24;10.50;77.60
75451;DHT22;64029;48.244;9.188;2023-05-07T02:41:51;10.50;77.70
75451;DHT22;64029;48.244;9.188;2023-05-07T02:44:18;10.50;77.60
75451;DHT22;64029;48.244;9.188;2023-05-07T02:46:44;10.50;77.60
75451;DHT22;64029;48.244;9.188;2023-05-07T02:49:13;10.40;77.60
75451;DHT22;64029;48.244;9.188;2023-05-07T02:51:40;10.40;78.80
75451;DHT22;64029;48.244;9.188;2023-05-07T02:54:07;10.40;78.10
75451;DHT22;64029;48.244;9.188;2023-05-07T02:56:33;10.40;77.40
75451;DHT22;64029;48.244;9.188;2023-05-07T02:59:00;10.40;77.50
75451;DHT22;64029;48.244;9.188;2023-05-07T03:01:27;10.40;77.60
75451;DHT22;64029;48.244;9.188;2023-05-07T03:03:54;10.30;77.60
75451;DHT22;64029;48.244;9.188;2023-05-07T03:06:23;10.30;77.60
75451;DHT22;64029;48.244;9.188;2023-05-07T03:08:50;10.30;77.20
75451;DHT22;64029;48.244;9.188;2023-05-07T03:11:17;10.30;77.00
75451;DHT22;64029;48.244;9.188;2023-05-07T03:13:44;10.30;76.90
75451;DHT22;64029;48.244;9.188;2023-05-07T03:16:11;10.20;77.10
75451;DHT22;64029;48.244;9.188;2023-05-07T03:18:38;10.20;77.30
75451;DHT22;64029;48.244;9.188;2023-05-07T03:21:04;10.20;77.60
75451;DHT22;64029;48.244;9.188;2023-05-07T03:23:33;10.10;77.50
75451;DHT22;64029;48.244;9.188;2023-05-07T03:25:59;10.10;78.00
75451;DHT22;64029;48.244;9.188;2023-05-07T03:28:26;10.10;77.80
75451;DHT22;64029;48.244;9.188;2023-05-07T03:30:53;10.10;77.20
75451;DHT22;64029;48.244;9.188;2023-05-07T03:33:20;10.10;77.30
75451;DHT22;64029;48.244;9.188;2023-05-07T03:35:47;10.00;77.20
75451;DHT22;64029;48.244;9.188;2023-05-07T03:38:14;10.00;77.40
75451;DHT22;64029;48.244;9.188;2023-05-07T03:40:42;10.00;77.50
75451;DHT22;64029;48.244;9.188;2023-05-07T03:43:09;9.90;78.70
75451;DHT22;64029;48.244;9.188;2023-05-07T03:45:36;9.90;78.60
75451;DHT22;64029;48.244;9.188;2023-05-07T03:48:03;9.90;78.50
75451;DHT22;64029;48.244;9.188;2023-05-07T03:50:30;9.90;78.40
75451;DHT22;64029;48.244;9.188;2023-05-07T03:52:57;9.80;78.60
75451;DHT22;64029;48.244;9.188;2023-05-07T03:55:24;9.70;79.30
75451;DHT22;64029;48.244;9.188;2023-05-07T03:57:53;9.70;78.70
75451;DHT22;64029;48.244;9.188;2023-05-07T04:00:20;9.70;79.00
75451;DHT22;64029;48.244;9.188;2023-05-07T04:02:47;9.60;78.90
75451;DHT22;64029;48.244;9.188;2023-05-07T04:05:14;9.60;78.90
75451;DHT22;64029;48.244;9.188;2023-05-07T04:07:41;9.60;78.90
75451;DHT22;64029;48.244;9.188;2023-05-07T04:10:09;9.50;79.00
75451;DHT22;64029;48.244;9.188;2023-05-07T04:12:36;9.50;78.90
75451;DHT22;64029;48.244;9.188;2023-05-07T04:15:05;9.40;78.70
75451;DHT22;64029;48.244;9.188;2023-05-07T04:17:32;9.40;78.80
75451;DHT22;64029;48.244;9.188;2023-05-07T04:19:59;9.40;78.90
75451;DHT22;64029;48.244;9.188;2023-05-07T04:22:26;9.40;78.90
75451;DHT22;64029;48.244;9.188;2023-05-07T04:24:52;9.40;78.90
75451;DHT22;64029;48.244;9.188;2023-05-07T04:27:20;9.30;78.80
75451;DHT22;64029;48.244;9.188;2023-05-07T04:29:47;9.40;79.00
75451;DHT22;64029;48.244;9.188;2023-05-07T04:32:15;9.30;78.80
75451;DHT22;64029;48.244;9.188;2023-05-07T04:34:43;9.30;78.80
75451;DHT22;64029;48.244;9.188;2023-05-07T04:37:09;9.30;78.50
75451;DHT22;64029;48.244;9.188;2023-05-07T04:39:36;9.40;78.70
75451;DHT22;64029;48.244;9.188;2023-05-07T04:42:03;9.30;78.70
75451;DHT22;64029;48.244;9.188;2023-05-07T04:44:31;9.30;78.80
75451;DHT22;64029;48.244;9.188;2023-05-07T04:46:58;9.30;78.60
75451;DHT22;64029;48.244;9.188;2023-05-07T04:49:26;9.30;78.70
75451;DHT22;64029;48.244;9.188;2023-05-07T04:51:53;9.30;78.50
75451;DHT22;64029;48.244;9.188;2023-05-07T04:54:20;9.30;78.20
75451;DHT22;64029;48.244;9.188;2023-05-07T04:56:47;9.40;78.30
75451;DHT22;64029;48.244;9.188;2023-05-07T04:59:13;9.40;78.20
75451;DHT22;64029;48.244;9.188;2023-05-07T05:01:40;9.40;78.10
75451;DHT22;64029;48.244;9.188;2023-05-07T05:04:07;9.40;78.60
75451;DHT22;64029;48.244;9.188;2023-05-07T05:06:35;9.40;78.60
75451;DHT22;64029;48.244;9.188;2023-05-07T05:09:02;9.40;78.30
75451;DHT22;64029;48.244;9.188;2023-05-07T05:11:30;9.40;78.30
75451;DHT22;64029;48.244;9.188;2023-05-07T05:13:58;9.40;78.50
75451;DHT22;64029;48.244;9.188;2023-05-07T05:16:26;9.40;78.60
75451;DHT22;64029;48.244;9.188;2023-05-07T05:18:53;9.40;78.30
75451;DHT22;64029;48.244;9.188;2023-05-07T05:21:20;9.50;78.40
75451;DHT22;64029;48.244;9.188;2023-05-07T05:23:49;9.50;78.60
75451;DHT22;64029;48.244;9.188;2023-05-07T05:26:16;9.50;79.20
75451;DHT22;64029;48.244;9.188;2023-05-07T05:28:43;9.50;78.80
75451;DHT22;64029;48.244;9.188;2023-05-07T05:31:10;9.50;78.90
75451;DHT22;64029;48.244;9.188;2023-05-07T05:33:37;9.50;79.20
75451;DHT22;64029;48.244;9.188;2023-05-07T05:36:05;9.60;79.20
75451;DHT22;64029;48.244;9.188;2023-05-07T05:38:32;9.60;79.30
75451;DHT22;64029;48.244;9.188;2023-05-07T05:41:00;9.70;79.80
75451;DHT22;64029;48.244;9.188;2023-05-07T05:43:27;9.70;79.90
75451;DHT22;64029;48.244;9.188;2023-05-07T05:45:55;9.80;79.80
75451;DHT22;64029;48.244;9.188;2023-05-07T05:48:22;9.90;79.60
75451;DHT22;64029;48.244;9.188;2023-05-07T05:50:49;10.10;78.90
75451;DHT22;64029;48.244;9.188;2023-05-07T05:53:16;10.20;79.20
75451;DHT22;64029;48.244;9.188;2023-05-07T05:55:43;10.40;79.80
75451;DHT22;64029;48.244;9.188;2023-05-07T05:58:11;10.50;80.10
75451;DHT22;64029;48.244;9.188;2023-05-07T06:00:38;10.70;80.40
75451;DHT22;64029;48.244;9.188;2023-05-07T06:03:05;10.80;80.50
75451;DHT22;64029;48.244;9.188;2023-05-07T06:05:32;10.90;80.40
75451;DHT22;64029;48.244;9.188;2023-05-07T06:07:59;11.10;80.60
75451;DHT22;64029;48.244;9.188;2023-05-07T06:10:26;11.20;80.80
75451;DHT22;64029;48.244;9.188;2023-05-07T06:12:53;11.40;81.40
75451;DHT22;64029;48.244;9.188;2023-05-07T06:15:22;11.60;81.40
75451;DHT22;64029;48.244;9.188;2023-05-07T06:17:50;11.80;81.70
75451;DHT22;64029;48.244;9.188;2023-05-07T06:20:17;12.00;81.70
75451;DHT22;64029;48.244;9.188;2023-05-07T06:22:44;12.20;81.60
75451;DHT22;64029;48.244;9.188;2023-05-07T06:25:11;12.40;82.10
75451;DHT22;64029;48.244;9.188;2023-05-07T06:27:37;12.50;81.80
75451;DHT22;64029;48.244;9.188;2023-05-07T06:30:06;12.60;81.90
75451;DHT22;64029;48.244;9.188;2023-05-07T06:32:34;12.80;81.70
75451;DHT22;64029;48.244;9.188;2023-05-07T06:35:01;12.90;81.80
75451;DHT22;64029;48.244;9.188;2023-05-07T06:37:28;13.10;81.70
75451;DHT22;64029;48.244;9.188;2023-05-07T06:39:55;13.30;81.80
75451;DHT22;64029;48.244;9.188;2023-05-07T06:42:24;13.50;81.80
75451;DHT22;64029;48.244;9.188;2023-05-07T06:44:52;13.70;82.10
75451;DHT22;64029;48.244;9.188;2023-05-07T06:47:19;14.00;82.20
75451;DHT22;64029;48.244;9.188;2023-05-07T06:49:47;14.20;82.30
75451;DHT22;64029;48.244;9.188;2023-05-07T06:52:14;14.40;82.30
75451;DHT22;64029;48.244;9.188;2023-05-07T06:54:41;14.70;82.60
75451;DHT22;64029;48.244;9.188;2023-05-07T06:57:08;14.90;82.60
75451;DHT22;64029;48.244;9.188;2023-05-07T06:59:34;15.00;82.40
75451;DHT22;64029;48.244;9.188;2023-05-07T07:02:02;15.20;83.00
75451;DHT22;64029;48.244;9.188;2023-05-07T07:04:32;15.30;82.70
75451;DHT22;64029;48.244;9.188;2023-05-07T07:07:02;15.40;82.40
75451;DHT22;64029;48.244;9.188;2023-05-07T07:09:28;15.60;82.50
75451;DHT22;64029;48.244;9.188;2023-05-07T07:11:55;15.70;82.00
75451;DHT22;64029;48.244;9.188;2023-05-07T07:14:22;15.70;81.20
75451;DHT22;64029;48.244;9.188;2023-05-07T07:16:49;15.80;82.20
75451;DHT22;64029;48.244;9.188;2023-05-07T07:19:16;15.80;81.20
75451;DHT22;64029;48.244;9.188;2023-05-07T07:21:43;15.90;81.20
75451;DHT22;64029;48.244;9.188;2023-05-07T07:24:12;15.90;81.00
75451;DHT22;64029;48.244;9.188;2023-05-07T07:26:44;16.00;81.00
75451;DHT22;64029;48.244;9.188;2023-05-07T07:29:12;16.10;81.00
75451;DHT22;64029;48.244;9.188;2023-05-07T07:31:39;16.10;80.50
75451;DHT22;64029;48.244;9.188;2023-05-07T07:34:06;16.20;80.70
75451;DHT22;64029;48.244;9.188;2023-05-07T07:36:33;16.20;80.30
75451;DHT22;64029;48.244;9.188;2023-05-07T07:39:00;16.20;80.20
75451;DHT22;64029;48.244;9.188;2023-05-07T07:41:28;16.30;80.10
75451;DHT22;64029;48.244;9.188;2023-05-07T07:43:55;16.30;80.00
75451;DHT22;64029;48.244;9.188;2023-05-07T07:46:22;16.30;80.00
75451;DHT22;64029;48.244;9.188;2023-05-07T07:48:49;16.30;79.50
75451;DHT22;64029;48.244;9.188;2023-05-07T07:51:16;16.40;79.70
75451;DHT22;64029;48.244;9.188;2023-05-07T07:53:43;16.40;79.70
75451;DHT22;64029;48.244;9.188;2023-05-07T07:56:10;16.50;79.70
75451;DHT22;64029;48.244;9.188;2023-05-07T07:58:38;16.50;79.40
75451;DHT22;64029;48.244;9.188;2023-05-07T08:01:08;16.50;79.00
75451;DHT22;64029;48.244;9.188;2023-05-07T08:03:35;16.60;79.20
75451;DHT22;64029;48.244;9.188;2023-05-07T08:06:02;16.70;79.70
75451;DHT22;64029;48.244;9.188;2023-05-07T08:08:29;16.70;79.00
75451;DHT22;64029;48.244;9.188;2023-05-07T08:10:56;16.80;78.10
75451;DHT22;64029;48.244;9.188;2023-05-07T08:13:22;16.90;78.50
75451;DHT22;64029;48.244;9.188;2023-05-07T08:15:51;17.00;79.00
75451;DHT22;64029;48.244;9.188;2023-05-07T08:18:18;17.10;77.40
75451;DHT22;64029;48.244;9.188;2023-05-07T08:20:45;17.20;78.90
75451;DHT22;64029;48.244;9.188;2023-05-07T08:23:11;17.30;77.50
75451;DHT22;64029;48.244;9.188;2023-05-07T08:25:39;17.50;78.20
75451;DHT22;64029;48.244;9.188;2023-05-07T08:28:07;17.60;78.10
75451;DHT22;64029;48.244;9.188;2023-05-07T08:30:34;17.70;77.30
75451;DHT22;64029;48.244;9.188;2023-05-07T08:33:03;17.80;76.20
75451;DHT22;64029;48.244;9.188;2023-05-07T08:35:29;17.90;77.00
75451;DHT22;64029;48.244;9.188;2023-05-07T08:37:57;18.00;77.10
75451;DHT22;64029;48.244;9.188;2023-05-07T08:40:25;18.20;77.40
75451;DHT22;64029;48.244;9.188;2023-05-07T08:42:53;18.30;75.00
75451;DHT22;64029;48.244;9.188;2023-05-07T08:45:20;18.40;77.10
75451;DHT22;64029;48.244;9.188;2023-05-07T08:47:50;18.50;74.60
75451;DHT22;64029;48.244;9.188;2023-05-07T08:50:20;18.60;75.60
75451;DHT22;64029;48.244;9.188;2023-05-07T08:52:47;18.70;75.20
75451;DHT22;64029;48.244;9.188;2023-05-07T08:55:15;18.80;75.00
75451;DHT22;64029;48.244;9.188;2023-05-07T08:57:42;18.90;72.50
75451;DHT22;64029;48.244;9.188;2023-05-07T09:00:10;18.90;73.90
75451;DHT22;64029;48.244;9.188;2023-05-07T09:02:37;19.00;74.00
75451;DHT22;64029;48.244;9.188;2023-05-07T09:05:05;19.10;73.40
75451;DHT22;64029;48.244;9.188;2023-05-07T09:07:36;19.20;73.10
75451;DHT22;64029;48.244;9.188;2023-05-07T09:10:03;19.20;73.70
75451;DHT22;64029;48.244;9.188;2023-05-07T09:12:31;19.20;73.30
75451;DHT22;64029;48.244;9.188;2023-05-07T09:15:02;19.30;73.70
75451;DHT22;64029;48.244;9.188;2023-05-07T09:17:29;19.30;70.80
75451;DHT22;64029;48.244;9.188;2023-05-07T09:19:56;19.40;72.50
75451;DHT22;64029;48.244;9.188;2023-05-07T09:22:31;19.50;72.50
75451;DHT22;64029;48.244;9.188;2023-05-07T09:25:00;19.40;70.80
75451;DHT22;64029;48.244;9.188;2023-05-07T09:27:28;19.40;70.80
75451;DHT22;64029;48.244;9.188;2023-05-07T09:29:55;19.50;69.90
75451;DHT22;64029;48.244;9.188;2023-05-07T09:32:22;19.50;71.40
75451;DHT22;64029;48.244;9.188;2023-05-07T09:34:49;19.50;69.30
75451;DHT22;64029;48.244;9.188;2023-05-07T09:37:15;19.50;71.50
75451;DHT22;64029;48.244;9.188;2023-05-07T09:39:44;19.60;71.60
75451;DHT22;64029;48.244;9.188;2023-05-07T09:42:13;19.60;69.20
75451;DHT22;64029;48.244;9.188;2023-05-07T09:44:40;19.60;70.00
75451;DHT22;64029;48.244;9.188;2023-05-07T09:47:08;19.60;71.30
75451;DHT22;64029;48.244;9.188;2023-05-07T09:49:38;19.50;67.60
75451;DHT22;64029;48.244;9.188;2023-05-07T09:52:09;19.60;70.80
75451;DHT22;64029;48.244;9.188;2023-05-07T09:54:36;19.50;69.20
75451;DHT22;64029;48.244;9.188;2023-05-07T09:57:05;19.60;70.90
75451;DHT22;64029;48.244;9.188;2023-05-07T09:59:34;19.60;69.10
75451;DHT22;64029;48.244;9.188;2023-05-07T10:02:04;19.60;70.90
75451;DHT22;64029;48.244;9.188;2023-05-07T10:04:31;19.60;68.90
75451;DHT22;64029;48.244;9.188;2023-05-07T10:06:59;19.60;69.10
75451;DHT22;64029;48.244;9.188;2023-05-07T10:09:26;19.60;67.00
75451;DHT22;64029;48.244;9.188;2023-05-07T10:11:54;19.50;68.30
75451;DHT22;64029;48.244;9.188;2023-05-07T10:14:21;19.60;70.50
75451;DHT22;64029;48.244;9.188;2023-05-07T10:16:50;19.70;70.90
75451;DHT22;64029;48.244;9.188;2023-05-07T10:19:18;19.70;70.90
75451;DHT22;64029;48.244;9.188;2023-05-07T10:21:54;19.70;68.30
75451;DHT22;64029;48.244;9.188;2023-05-07T10:24:25;19.90;71.20
75451;DHT22;64029;48.244;9.188;2023-05-07T10:26:53;19.90;71.20
75451;DHT22;64029;48.244;9.188;2023-05-07T10:29:29;19.80;70.60
75451;DHT22;64029;48.244;9.188;2023-05-07T10:32:13;19.90;67.40
75451;DHT22;64029;48.244;9.188;2023-05-07T10:34:47;19.90;70.30
75451;DHT22;64029;48.244;9.188;2023-05-07T10:37:17;19.90;67.60
75451;DHT22;64029;48.244;9.188;2023-05-07T10:39:46;19.90;63.60
75451;DHT22;64029;48.244;9.188;2023-05-07T10:42:16;19.90;68.70
75451;DHT22;64029;48.244;9.188;2023-05-07T10:44:46;20.00;65.90
75451;DHT22;64029;48.244;9.188;2023-05-07T10:47:16;20.00;69.70
75451;DHT22;64029;48.244;9.188;2023-05-07T10:53:20;20.00;69.60
75451;DHT22;64029;48.244;9.188;2023-05-07T10:55:50;20.00;70.10
75451;DHT22;64029;48.244;9.188;2023-05-07T10:58:28;20.10;69.90
75451;DHT22;64029;48.244;9.188;2023-05-07T11:00:59;20.00;68.00
75451;DHT22;64029;48.244;9.188;2023-05-07T11:03:28;20.10;69.00
75451;DHT22;64029;48.244;9.188;2023-05-07T11:06:11;20.00;67.30
75451;DHT22;64029;48.244;9.188;2023-05-07T11:08:54;20.00;69.10
75451;DHT22;64029;48.244;9.188;2023-05-07T11:11:46;20.00;68.80
75451;DHT22;64029;48.244;9.188;2023-05-07T11:14:13;20.10;69.70
75451;DHT22;64029;48.244;9.188;2023-05-07T11:16:41;20.00;68.30
75451;DHT22;64029;48.244;9.188;2023-05-07T11:19:11;20.00;69.60
75451;DHT22;64029;48.244;9.188;2023-05-07T11:21:41;20.00;69.10
75451;DHT22;64029;48.244;9.188;2023-05-07T11:24:09;20.00;69.50
75451;DHT22;64029;48.244;9.188;2023-05-07T11:26:44;20.00;69.20
75451;DHT22;64029;48.244;9.188;2023-05-07T11:29:13;19.90;69.40
75451;DHT22;64029;48.244;9.188;2023-05-07T11:31:40;19.90;69.60
75451;DHT22;64029;48.244;9.188;2023-05-07T11:34:08;19.90;69.60
75451;DHT22;64029;48.244;9.188;2023-05-07T11:36:42;19.90;69.80
75451;DHT22;64029;48.244;9.188;2023-05-07T11:39:30;19.90;69.90
75451;DHT22;64029;48.244;9.188;2023-05-07T11:41:58;19.90;69.80
75451;DHT22;64029;48.244;9.188;2023-05-07T11:44:25;19.80;69.80
75451;DHT22;64029;48.244;9.188;2023-05-07T11:47:05;19.70;68.20
75451;DHT22;64029;48.244;9.188;2023-05-07T11:49:32;19.70;69.80
75451;DHT22;64029;48.244;9.188;2023-05-07T11:52:03;19.70;69.50
75451;DHT22;64029;48.244;9.188;2023-05-07T11:54:35;19.70;69.70
75451;DHT22;64029;48.244;9.188;2023-05-07T11:57:02;19.70;69.60
75451;DHT22;64029;48.244;9.188;2023-05-07T11:59:29;19.60;69.50
75451;DHT22;64029;48.244;9.188;2023-05-07T12:01:59;19.60;69.80
75451;DHT22;64029;48.244;9.188;2023-05-07T12:04:26;19.60;69.90
75451;DHT22;64029;48.244;9.188;2023-05-07T12:06:54;19.60;69.90
75451;DHT22;64029;48.244;9.188;2023-05-07T12:09:26;19.50;69.80
75451;DHT22;64029;48.244;9.188;2023-05-07T12:11:53;19.50;70.00
75451;DHT22;64029;48.244;9.188;2023-05-07T12:14:21;19.50;70.20
75451;DHT22;64029;48.244;9.188;2023-05-07T12:16:48;19.50;70.10
75451;DHT22;64029;48.244;9.188;2023-05-07T12:19:16;19.40;70.10
75451;DHT22;64029;48.244;9.188;2023-05-07T12:21:43;19.40;70.20
75451;DHT22;64029;48.244;9.188;2023-05-07T12:24:14;19.40;70.20
75451;DHT22;64029;48.244;9.188;2023-05-07T12:26:43;19.40;70.40
75451;DHT22;64029;48.244;9.188;2023-05-07T12:29:10;19.40;70.50
75451;DHT22;64029;48.244;9.188;2023-05-07T12:31:40;19.30;70.60
75451;DHT22;64029;48.244;9.188;2023-05-07T12:34:07;19.30;70.50
75451;DHT22;64029;48.244;9.188;2023-05-07T12:36:37;19.30;70.50
75451;DHT22;64029;48.244;9.188;2023-05-07T12:39:05;19.30;70.60
75451;DHT22;64029;48.244;9.188;2023-05-07T12:41:36;19.20;70.60
75451;DHT22;64029;48.244;9.188;2023-05-07T12:44:05;19.20;70.60
75451;DHT22;64029;48.244;9.188;2023-05-07T12:46:38;19.20;70.70
75451;DHT22;64029;48.244;9.188;2023-05-07T12:49:05;19.20;70.70
75451;DHT22;64029;48.244;9.188;2023-05-07T12:51:34;19.10;70.00
75451;DHT22;64029;48.244;9.188;2023-05-07T12:54:02;19.10;70.60
75451;DHT22;64029;48.244;9.188;2023-05-07T12:56:30;19.00;70.20
75451;DHT22;64029;48.244;9.188;2023-05-07T12:58:57;18.90;69.90
75451;DHT22;64029;48.244;9.188;2023-05-07T13:01:30;19.00;70.70
75451;DHT22;64029;48.244;9.188;2023-05-07T13:04:01;18.80;70.10
75451;DHT22;64029;48.244;9.188;2023-05-07T13:06:30;18.60;70.40
75451;DHT22;64029;48.244;9.188;2023-05-07T13:08:57;18.30;71.20
75451;DHT22;64029;48.244;9.188;2023-05-07T13:11:24;18.30;71.80
75451;DHT22;64029;48.244;9.188;2023-05-07T13:13:53;18.20;72.40
75451;DHT22;64029;48.244;9.188;2023-05-07T13:16:20;18.00;73.00
75451;DHT22;64029;48.244;9.188;2023-05-07T13:18:48;18.00;73.00
75451;DHT22;64029;48.244;9.188;2023-05-07T13:21:15;17.90;72.00
75451;DHT22;64029;48.244;9.188;2023-05-07T13:23:42;17.90;71.20
75451;DHT22;64029;48.244;9.188;2023-05-07T13:26:09;17.80;70.40
75451;DHT22;64029;48.244;9.188;2023-05-07T13:28:36;17.60;69.70
75451;DHT22;64029;48.244;9.188;2023-05-07T13:31:03;17.50;71.00
75451;DHT22;64029;48.244;9.188;2023-05-07T13:33:30;17.40;70.60
75451;DHT22;64029;48.244;9.188;2023-05-07T13:35:58;17.30;71.50
75451;DHT22;64029;48.244;9.188;2023-05-07T13:38:26;17.20;71.50
75451;DHT22;64029;48.244;9.188;2023-05-07T13:40:53;17.20;71.10
75451;DHT22;64029;48.244;9.188;2023-05-07T13:43:19;16.90;70.40
75451;DHT22;64029;48.244;9.188;2023-05-07T13:45:48;16.90;70.20
75451;DHT22;64029;48.244;9.188;2023-05-07T13:48:15;16.80;70.50
75451;DHT22;64029;48.244;9.188;2023-05-07T13:50:42;16.80;70.80
75451;DHT22;64029;48.244;9.188;2023-05-07T13:53:10;16.90;70.70
75451;DHT22;64029;48.244;9.188;2023-05-07T13:55:37;16.90;71.30
75451;DHT22;64029;48.244;9.188;2023-05-07T13:58:04;16.50;72.60
75451;DHT22;64029;48.244;9.188;2023-05-07T14:00:31;16.40;73.30
75451;DHT22;64029;48.244;9.188;2023-05-07T14:02:58;16.60;73.40
75451;DHT22;64029;48.244;9.188;2023-05-07T14:05:25;16.60;73.50
75451;DHT22;64029;48.244;9.188;2023-05-07T14:07:53;16.50;73.80
75451;DHT22;64029;48.244;9.188;2023-05-07T14:10:21;16.60;74.20
75451;DHT22;64029;48.244;9.188;2023-05-07T14:12:48;16.50;73.90
75451;DHT22;64029;48.244;9.188;2023-05-07T14:15:16;16.50;73.80
75451;DHT22;64029;48.244;9.188;2023-05-07T14:17:43;16.40;73.90
75451;DHT22;64029;48.244;9.188;2023-05-07T14:20:10;16.30;74.00
75451;DHT22;64029;48.244;9.188;2023-05-07T14:22:37;16.30;74.00
75451;DHT22;64029;48.244;9.188;2023-05-07T14:25:06;16.40;74.30
75451;DHT22;64029;48.244;9.188;2023-05-07T14:27:34;16.30;74.30
75451;DHT22;64029;48.244;9.188;2023-05-07T14:30:01;16.30;74.40
75451;DHT22;64029;48.244;9.188;2023-05-07T14:32:28;16.30;74.70
75451;DHT22;64029;48.244;9.188;2023-05-07T14:34:57;16.20;75.80
75451;DHT22;64029;48.244;9.188;2023-05-07T14:37:24;16.20;75.70
75451;DHT22;64029;48.244;9.188;2023-05-07T14:39:51;16.10;76.10
75451;DHT22;64029;48.244;9.188;2023-05-07T14:42:18;16.10;76.30
75451;DHT22;64029;48.244;9.188;2023-05-07T14:44:47;16.10;76.60
75451;DHT22;64029;48.244;9.188;2023-05-07T14:47:14;16.10;76.50
75451;DHT22;64029;48.244;9.188;2023-05-07T14:49:41;16.00;76.70
75451;DHT22;64029;48.244;9.188;2023-05-07T14:52:08;16.00;76.50
75451;DHT22;64029;48.244;9.188;2023-05-07T14:54:37;15.90;77.20
75451;DHT22;64029;48.244;9.188;2023-05-07T14:57:05;15.90;78.00
75451;DHT22;64029;48.244;9.188;2023-05-07T14:59:32;16.00;77.60
75451;DHT22;64029;48.244;9.188;2023-05-07T15:02:01;16.00;79.40
75451;DHT22;64029;48.244;9.188;2023-05-07T15:04:28;15.80;80.90
75451;DHT22;64029;48.244;9.188;2023-05-07T15:06:55;15.90;81.60
75451;DHT22;64029;48.244;9.188;2023-05-07T15:09:22;15.90;80.70
75451;DHT22;64029;48.244;9.188;2023-05-07T15:11:49;15.90;81.10
75451;DHT22;64029;48.244;9.188;2023-05-07T15:14:17;16.00;80.80
75451;DHT22;64029;48.244;9.188;2023-05-07T15:16:45;16.00;80.50
75451;DHT22;64029;48.244;9.188;2023-05-07T15:19:13;16.00;82.50
75451;DHT22;64029;48.244;9.188;2023-05-07T15:21:41;16.00;81.90
75451;DHT22;64029;48.244;9.188;2023-05-07T15:24:09;15.90;82.00
75451;DHT22;64029;48.244;9.188;2023-05-07T15:26:36;16.00;81.80
75451;DHT22;64029;48.244;9.188;2023-05-07T15:29:02;16.00;81.20
75451;DHT22;64029;48.244;9.188;2023-05-07T15:31:35;16.10;81.50
75451;DHT22;64029;48.244;9.188;2023-05-07T15:34:03;16.10;81.60
75451;DHT22;64029;48.244;9.188;2023-05-07T15:36:32;16.20;81.30
75451;DHT22;64029;48.244;9.188;2023-05-07T15:38:59;16.30;81.10
75451;DHT22;64029;48.244;9.188;2023-05-07T15:41:28;16.30;80.90